sensor_id;sensor_type;location;lat;lon;timestamp;temperature;humidity
72128;DHT22;60000;51.030;7.024;2023-05-10T00:01:32;13.24;92.61
72128;DHT22;60000;51.030;7.024;2023-05-10T00:03:58;13.24;92.66
72128;DHT22;60000;51.030;7.024;2023-05-10T00:06:23;13.24;92.49
72128;DHT22;60000;51.030;7.024;2023-05-10T00:08:48;13.22;92.60
72128;DHT22;60000;51.030;7.024;2023-05-10T00:11:14;13.25;92.57
72128;DHT22;60000;51.030;7.024;2023-05-10T00:13:39;13.28;92.33
72128;DHT22;60000;51.030;7.024;2023-05-10T00:16:05;13.26;92.38
72128;DHT22;60000;51.030;7.024;2023-05-10T00:18:30;13.25;92.36
72128;DHT22;60000;51.030;7.024;2023-05-10T00:20:55;13.25;92.47
72128;DHT22;60000;51.030;7.024;2023-05-10T00:23:21;13.28;92.49
72128;DHT22;60000;51.030;7.024;2023-05-10T00:25:46;13.28;92.50
72128;DHT22;60000;51.030;7.024;2023-05-10T00:28:11;13.26;92.59
72128;DHT22;60000;51.030;7.024;2023-05-10T00:30:37;13.28;92.63
72128;DHT22;60000;51.030;7.024;2023-05-10T00:33:02;13.29;92.67
72128;DHT22;60000;51.030;7.024;2023-05-10T00:35:27;13.26;92.57
72128;DHT22;60000;51.030;7.024;2023-05-10T00:37:53;13.31;92.63
72128;DHT22;60000;51.030;7.024;2023-05-10T00:40:18;13.28;92.59
72128;DHT22;60000;51.030;7.024;2023-05-10T00:42:44;13.32;92.63
72128;DHT22;60000;51.030;7.024;2023-05-10T00:45:09;13.34;92.68
72128;DHT22;60000;51.030;7.024;2023-05-10T00:47:34;13.32;92.74
72128;DHT22;60000;51.030;7.024;2023-05-10T00:50:00;13.35;92.80
72128;DHT22;60000;51.030;7.024;2023-05-10T00:52:27;13.36;92.83
72128;DHT22;60000;51.030;7.024;2023-05-10T00:54:53;13.36;92.81
72128;DHT22;60000;51.030;7.024;2023-05-10T00:57:19;13.39;92.92
72128;DHT22;60000;51.030;7.024;2023-05-10T00:59:44;13.41;92.86
72128;DHT22;60000;51.030;7.024;2023-05-10T01:02:10;13.39;92.86
72128;DHT22;60000;51.030;7.024;2023-05-10T01:04:36;13.42;92.88
72128;DHT22;60000;51.030;7.024;2023-05-10T01:07:02;13.39;92.88
72128;DHT22;60000;51.030;7.024;2023-05-10T01:09:27;13.39;92.92
72128;DHT22;60000;51.030;7.024;2023-05-10T01:11:53;13.42;92.95
72128;DHT22;60000;51.030;7.024;2023-05-10T01:14:19;13.42;92.94
72128;DHT22;60000;51.030;7.024;2023-05-10T01:16:45;13.44;92.88
72128;DHT22;60000;51.030;7.024;2023-05-10T01:19:28;13.44;92.92
72128;DHT22;60000;51.030;7.024;2023-05-10T01:22:21;13.42;92.90
72128;DHT22;60000;51.030;7.024;2023-05-10T01:36:40;13.38;92.22
72128;DHT22;60000;51.030;7.024;2023-05-10T01:42:07;13.36;92.37
72128;DHT22;60000;51.030;7.024;2023-05-10T01:47:22;13.32;92.27
72128;DHT22;60000;51.030;7.024;2023-05-10T01:49:52;13.35;92.41
72128;DHT22;60000;51.030;7.024;2023-05-10T01:52:19;13.32;92.45
72128;DHT22;60000;51.030;7.024;2023-05-10T01:54:55;13.29;92.43
72128;DHT22;60000;51.030;7.024;2023-05-10T01:57:25;13.29;92.43
72128;DHT22;60000;51.030;7.024;2023-05-10T01:59:52;13.25;92.43
72128;DHT22;60000;51.030;7.024;2023-05-10T02:02:22;13.22;92.57
72128;DHT22;60000;51.030;7.024;2023-05-10T02:04:49;13.21;92.48
72128;DHT22;60000;51.030;7.024;2023-05-10T02:07:15;13.21;92.48
72128;DHT22;60000;51.030;7.024;2023-05-10T02:09:43;13.18;92.43
72128;DHT22;60000;51.030;7.024;2023-05-10T02:12:09;13.18;92.32
72128;DHT22;60000;51.030;7.024;2023-05-10T02:14:36;13.15;92.28
72128;DHT22;60000;51.030;7.024;2023-05-10T02:17:04;13.14;92.22
72128;DHT22;60000;51.030;7.024;2023-05-10T02:19:31;13.15;92.36
72128;DHT22;60000;51.030;7.024;2023-05-10T02:21:58;13.12;92.21
72128;DHT22;60000;51.030;7.024;2023-05-10T02:24:25;13.11;92.01
72128;DHT22;60000;51.030;7.024;2023-05-10T02:26:51;13.08;92.17
72128;DHT22;60000;51.030;7.024;2023-05-10T02:29:18;13.08;92.06
72128;DHT22;60000;51.030;7.024;2023-05-10T02:31:45;13.08;92.18
72128;DHT22;60000;51.030;7.024;2023-05-10T02:34:11;13.08;92.03
72128;DHT22;60000;51.030;7.024;2023-05-10T02:36:38;13.10;92.05
72128;DHT22;60000;51.030;7.024;2023-05-10T02:39:04;13.04;91.86
72128;DHT22;60000;51.030;7.024;2023-05-10T02:41:35;13.05;91.92
72128;DHT22;60000;51.030;7.024;2023-05-10T02:44:02;13.04;92.01
72128;DHT22;60000;51.030;7.024;2023-05-10T02:46:28;13.03;91.88
72128;DHT22;60000;51.030;7.024;2023-05-10T02:48:54;13.04;91.86
72128;DHT22;60000;51.030;7.024;2023-05-10T02:51:21;13.01;91.90
72128;DHT22;60000;51.030;7.024;2023-05-10T02:53:53;13.04;92.03
72128;DHT22;60000;51.030;7.024;2023-05-10T02:56:40;13.04;92.18
72128;DHT22;60000;51.030;7.024;2023-05-10T02:59:07;13.01;92.07
72128;DHT22;60000;51.030;7.024;2023-05-10T03:01:32;13.03;92.10
72128;DHT22;60000;51.030;7.024;2023-05-10T03:03:58;13.03;92.30
72128;DHT22;60000;51.030;7.024;2023-05-10T03:06:23;13.07;92.18
72128;DHT22;60000;51.030;7.024;2023-05-10T03:08:49;13.07;92.16
72128;DHT22;60000;51.030;7.024;2023-05-10T03:19:53;13.05;92.33
72128;DHT22;60000;51.030;7.024;2023-05-10T03:22:29;13.10;92.25
72128;DHT22;60000;51.030;7.024;2023-05-10T03:24:56;13.07;92.22
72128;DHT22;60000;51.030;7.024;2023-05-10T03:27:23;13.08;92.44
72128;DHT22;60000;51.030;7.024;2023-05-10T03:29:50;13.08;92.43
72128;DHT22;60000;51.030;7.024;2023-05-10T03:32:16;13.11;92.40
72128;DHT22;60000;51.030;7.024;2023-05-10T03:34:42;13.12;92.44
72128;DHT22;60000;51.030;7.024;2023-05-10T03:37:08;13.12;92.35
72128;DHT22;60000;51.030;7.024;2023-05-10T03:39:33;13.15;92.44
72128;DHT22;60000;51.030;7.024;2023-05-10T03:41:59;13.15;92.43
72128;DHT22;60000;51.030;7.024;2023-05-10T03:44:24;13.18;92.41
72128;DHT22;60000;51.030;7.024;2023-05-10T03:46:49;13.16;92.46
72128;DHT22;60000;51.030;7.024;2023-05-10T03:49:15;13.14;92.41
72128;DHT22;60000;51.030;7.024;2023-05-10T03:51:40;13.14;92.44
72128;DHT22;60000;51.030;7.024;2023-05-10T03:54:05;13.16;92.39
72128;DHT22;60000;51.030;7.024;2023-05-10T03:56:30;13.15;92.40
72128;DHT22;60000;51.030;7.024;2023-05-10T03:58:56;13.15;92.39
72128;DHT22;60000;51.030;7.024;2023-05-10T04:01:21;13.16;92.31
72128;DHT22;60000;51.030;7.024;2023-05-10T04:03:47;13.18;92.52
72128;DHT22;60000;51.030;7.024;2023-05-10T04:06:12;13.18;92.42
72128;DHT22;60000;51.030;7.024;2023-05-10T04:08:37;13.16;92.30
72128;DHT22;60000;51.030;7.024;2023-05-10T04:11:10;13.18;92.35
72128;DHT22;60000;51.030;7.024;2023-05-10T04:13:36;13.18;92.31
72128;DHT22;60000;51.030;7.024;2023-05-10T04:16:02;13.18;92.32
72128;DHT22;60000;51.030;7.024;2023-05-10T04:18:28;13.21;92.40
72128;DHT22;60000;51.030;7.024;2023-05-10T04:20:53;13.21;92.35
72128;DHT22;60000;51.030;7.024;2023-05-10T04:23:18;13.25;92.33
72128;DHT22;60000;51.030;7.024;2023-05-10T04:25:44;13.26;92.34
72128;DHT22;60000;51.030;7.024;2023-05-10T04:28:09;13.28;92.31
72128;DHT22;60000;51.030;7.024;2023-05-10T04:30:34;13.29;92.39
72128;DHT22;60000;51.030;7.024;2023-05-10T04:33:00;13.31;92.31
72128;DHT22;60000;51.030;7.024;2023-05-10T04:35:27;13.34;92.19
72128;DHT22;60000;51.030;7.024;2023-05-10T04:37:52;13.31;92.06
72128;DHT22;60000;51.030;7.024;2023-05-10T04:40:17;13.31;92.04
72128;DHT22;60000;51.030;7.024;2023-05-10T04:42:43;13.34;92.05
72128;DHT22;60000;51.030;7.024;2023-05-10T04:45:09;13.32;92.06
72128;DHT22;60000;51.030;7.024;2023-05-10T04:47:35;13.32;92.05
72128;DHT22;60000;51.030;7.024;2023-05-10T04:50:02;13.36;92.11
72128;DHT22;60000;51.030;7.024;2023-05-10T04:52:27;13.36;92.03
72128;DHT22;60000;51.030;7.024;2023-05-10T04:54:53;13.36;92.17
72128;DHT22;60000;51.030;7.024;2023-05-10T04:57:18;13.38;92.16
72128;DHT22;60000;51.030;7.024;2023-05-10T04:59:43;13.39;92.02
72128;DHT22;60000;51.030;7.024;2023-05-10T05:02:08;13.38;91.93
72128;DHT22;60000;51.030;7.024;2023-05-10T05:04:34;13.36;91.77
72128;DHT22;60000;51.030;7.024;2023-05-10T05:06:59;13.38;91.84
72128;DHT22;60000;51.030;7.024;2023-05-10T05:09:24;13.39;91.81
72128;DHT22;60000;51.030;7.024;2023-05-10T05:11:50;13.39;91.80
72128;DHT22;60000;51.030;7.024;2023-05-10T05:14:15;13.41;91.45
72128;DHT22;60000;51.030;7.024;2023-05-10T05:16:40;13.41;91.36
72128;DHT22;60000;51.030;7.024;2023-05-10T05:19:06;13.41;91.04
72128;DHT22;60000;51.030;7.024;2023-05-10T05:21:31;13.44;91.12
72128;DHT22;60000;51.030;7.024;2023-05-10T05:23:57;13.44;91.41
72128;DHT22;60000;51.030;7.024;2023-05-10T05:26:23;13.42;91.22
72128;DHT22;60000;51.030;7.024;2023-05-10T05:28:48;13.42;91.09
72128;DHT22;60000;51.030;7.024;2023-05-10T05:31:16;13.46;91.12
72128;DHT22;60000;51.030;7.024;2023-05-10T05:33:42;13.51;90.89
72128;DHT22;60000;51.030;7.024;2023-05-10T05:36:08;13.49;90.74
72128;DHT22;60000;51.030;7.024;2023-05-10T05:38:33;13.49;90.44
72128;DHT22;60000;51.030;7.024;2023-05-10T05:40:59;13.46;89.83
72128;DHT22;60000;51.030;7.024;2023-05-10T05:43:24;13.48;90.10
72128;DHT22;60000;51.030;7.024;2023-05-10T05:45:49;13.48;89.93
72128;DHT22;60000;51.030;7.024;2023-05-10T05:48:16;13.46;89.95
72128;DHT22;60000;51.030;7.024;2023-05-10T05:50:42;13.46;89.86
72128;DHT22;60000;51.030;7.024;2023-05-10T05:53:08;13.48;89.86
72128;DHT22;60000;51.030;7.024;2023-05-10T05:55:33;13.45;89.79
72128;DHT22;60000;51.030;7.024;2023-05-10T05:57:59;13.45;89.34
72128;DHT22;60000;51.030;7.024;2023-05-10T06:00:24;13.42;89.39
72128;DHT22;60000;51.030;7.024;2023-05-10T06:02:49;13.46;89.55
72128;DHT22;60000;51.030;7.024;2023-05-10T06:05:15;13.44;89.37
72128;DHT22;60000;51.030;7.024;2023-05-10T06:07:40;13.44;89.52
72128;DHT22;60000;51.030;7.024;2023-05-10T06:10:07;13.45;89.36
72128;DHT22;60000;51.030;7.024;2023-05-10T06:12:33;13.49;89.46
72128;DHT22;60000;51.030;7.024;2023-05-10T06:14:58;13.48;89.42
72128;DHT22;60000;51.030;7.024;2023-05-10T06:17:23;13.48;89.44
72128;DHT22;60000;51.030;7.024;2023-05-10T06:19:49;13.49;89.28
72128;DHT22;60000;51.030;7.024;2023-05-10T06:22:14;13.51;89.41
72128;DHT22;60000;51.030;7.024;2023-05-10T06:24:40;13.52;89.49
72128;DHT22;60000;51.030;7.024;2023-05-10T06:27:06;13.52;89.57
72128;DHT22;60000;51.030;7.024;2023-05-10T06:29:32;13.55;89.57
72128;DHT22;60000;51.030;7.024;2023-05-10T06:31:57;13.56;89.71
72128;DHT22;60000;51.030;7.024;2023-05-10T06:34:23;13.52;89.43
72128;DHT22;60000;51.030;7.024;2023-05-10T06:36:49;13.49;89.57
72128;DHT22;60000;51.030;7.024;2023-05-10T06:39:14;13.53;89.58
72128;DHT22;60000;51.030;7.024;2023-05-10T06:41:39;13.51;89.34
72128;DHT22;60000;51.030;7.024;2023-05-10T06:44:05;13.46;89.17
72128;DHT22;60000;51.030;7.024;2023-05-10T06:46:30;13.45;89.05
72128;DHT22;60000;51.030;7.024;2023-05-10T06:48:56;13.45;89.06
72128;DHT22;60000;51.030;7.024;2023-05-10T06:51:22;13.46;88.98
72128;DHT22;60000;51.030;7.024;2023-05-10T06:53:47;13.46;89.14
72128;DHT22;60000;51.030;7.024;2023-05-10T06:56:13;13.46;89.44
72128;DHT22;60000;51.030;7.024;2023-05-10T06:58:38;13.46;89.50
72128;DHT22;60000;51.030;7.024;2023-05-10T07:01:04;13.48;89.73
72128;DHT22;60000;51.030;7.024;2023-05-10T07:03:30;13.46;90.00
72128;DHT22;60000;51.030;7.024;2023-05-10T07:06:02;13.46;90.13
72128;DHT22;60000;51.030;7.024;2023-05-10T07:08:30;13.44;90.32
72128;DHT22;60000;51.030;7.024;2023-05-10T07:11:05;13.44;90.69
72128;DHT22;60000;51.030;7.024;2023-05-10T07:13:34;13.44;90.84
72128;DHT22;60000;51.030;7.024;2023-05-10T07:16:00;13.46;91.00
72128;DHT22;60000;51.030;7.024;2023-05-10T07:18:29;13.48;91.03
72128;DHT22;60000;51.030;7.024;2023-05-10T07:20:57;13.46;91.03
72128;DHT22;60000;51.030;7.024;2023-05-10T07:23:22;13.49;91.37
72128;DHT22;60000;51.030;7.024;2023-05-10T07:25:49;13.51;91.22
72128;DHT22;60000;51.030;7.024;2023-05-10T07:28:15;13.51;91.07
72128;DHT22;60000;51.030;7.024;2023-05-10T07:30:41;13.55;91.29
72128;DHT22;60000;51.030;7.024;2023-05-10T07:33:08;13.56;91.17
72128;DHT22;60000;51.030;7.024;2023-05-10T07:35:34;13.52;91.08
72128;DHT22;60000;51.030;7.024;2023-05-10T07:38:00;13.52;91.33
72128;DHT22;60000;51.030;7.024;2023-05-10T07:40:25;13.56;91.34
72128;DHT22;60000;51.030;7.024;2023-05-10T07:42:51;13.58;91.37
72128;DHT22;60000;51.030;7.024;2023-05-10T07:45:17;13.62;91.47
72128;DHT22;60000;51.030;7.024;2023-05-10T07:47:42;13.65;91.33
72128;DHT22;60000;51.030;7.024;2023-05-10T07:50:08;13.70;91.17
72128;DHT22;60000;51.030;7.024;2023-05-10T07:52:33;13.72;91.03
72128;DHT22;60000;51.030;7.024;2023-05-10T07:54:58;13.75;90.89
72128;DHT22;60000;51.030;7.024;2023-05-10T07:57:24;13.77;91.16
72128;DHT22;60000;51.030;7.024;2023-05-10T07:59:49;13.84;91.14
72128;DHT22;60000;51.030;7.024;2023-05-10T08:02:14;13.90;91.08
72128;DHT22;60000;51.030;7.024;2023-05-10T08:04:40;13.91;90.82
72128;DHT22;60000;51.030;7.024;2023-05-10T08:07:05;13.96;91.09
72128;DHT22;60000;51.030;7.024;2023-05-10T08:09:30;13.97;90.81
72128;DHT22;60000;51.030;7.024;2023-05-10T08:11:56;14.04;90.98
72128;DHT22;60000;51.030;7.024;2023-05-10T08:14:21;14.09;90.70
72128;DHT22;60000;51.030;7.024;2023-05-10T08:16:47;14.16;90.89
72128;DHT22;60000;51.030;7.024;2023-05-10T08:19:12;14.23;90.85
72128;DHT22;60000;51.030;7.024;2023-05-10T08:21:38;14.30;90.46
72128;DHT22;60000;51.030;7.024;2023-05-10T08:24:03;14.27;89.61
72128;DHT22;60000;51.030;7.024;2023-05-10T08:26:28;14.28;89.80
72128;DHT22;60000;51.030;7.024;2023-05-10T08:28:54;14.25;89.06
72128;DHT22;60000;51.030;7.024;2023-05-10T08:31:19;14.27;89.39
72128;DHT22;60000;51.030;7.024;2023-05-10T08:33:45;14.27;89.02
72128;DHT22;60000;51.030;7.024;2023-05-10T08:36:10;14.25;89.06
72128;DHT22;60000;51.030;7.024;2023-05-10T08:38:37;14.23;88.74
72128;DHT22;60000;51.030;7.024;2023-05-10T08:41:03;14.23;88.71
72128;DHT22;60000;51.030;7.024;2023-05-10T08:43:29;14.23;89.03
72128;DHT22;60000;51.030;7.024;2023-05-10T08:45:56;14.20;88.81
72128;DHT22;60000;51.030;7.024;2023-05-10T08:48:23;14.20;88.06
72128;DHT22;60000;51.030;7.024;2023-05-10T08:50:52;14.23;88.26
72128;DHT22;60000;51.030;7.024;2023-05-10T08:53:18;14.23;88.29
72128;DHT22;60000;51.030;7.024;2023-05-10T08:55:44;14.21;88.57
72128;DHT22;60000;51.030;7.024;2023-05-10T08:58:10;14.18;88.22
72128;DHT22;60000;51.030;7.024;2023-05-10T09:00:36;14.13;88.44
72128;DHT22;60000;51.030;7.024;2023-05-10T09:03:04;14.10;89.14
72128;DHT22;60000;51.030;7.024;2023-05-10T09:05:29;14.18;89.11
72128;DHT22;60000;51.030;7.024;2023-05-10T09:07:55;14.17;89.13
72128;DHT22;60000;51.030;7.024;2023-05-10T09:10:21;14.20;89.35
72128;DHT22;60000;51.030;7.024;2023-05-10T09:12:47;14.30;89.05
72128;DHT22;60000;51.030;7.024;2023-05-10T09:15:15;14.49;90.26
72128;DHT22;60000;51.030;7.024;2023-05-10T09:17:42;14.61;89.61
72128;DHT22;60000;51.030;7.024;2023-05-10T09:20:07;14.67;88.15
72128;DHT22;60000;51.030;7.024;2023-05-10T09:22:34;14.75;88.31
72128;DHT22;60000;51.030;7.024;2023-05-10T09:25:10;14.91;88.26
72128;DHT22;60000;51.030;7.024;2023-05-10T09:27:37;15.02;88.19
72128;DHT22;60000;51.030;7.024;2023-05-10T09:30:03;15.03;86.97
72128;DHT22;60000;51.030;7.024;2023-05-10T09:32:43;15.14;87.27
72128;DHT22;60000;51.030;7.024;2023-05-10T09:35:17;15.20;86.72
72128;DHT22;60000;51.030;7.024;2023-05-10T09:37:47;15.24;86.32
72128;DHT22;60000;51.030;7.024;2023-05-10T09:40:17;15.23;84.96
72128;DHT22;60000;51.030;7.024;2023-05-10T09:42:52;15.16;85.52
72128;DHT22;60000;51.030;7.024;2023-05-10T09:45:17;15.22;86.25
72128;DHT22;60000;51.030;7.024;2023-05-10T09:47:43;15.22;85.75
72128;DHT22;60000;51.030;7.024;2023-05-10T09:50:09;15.12;85.82
72128;DHT22;60000;51.030;7.024;2023-05-10T09:55:21;15.27;86.61
72128;DHT22;60000;51.030;7.024;2023-05-10T09:57:48;15.31;86.05
72128;DHT22;60000;51.030;7.024;2023-05-10T10:00:20;15.36;85.92
72128;DHT22;60000;51.030;7.024;2023-05-10T10:02:55;15.31;85.07
72128;DHT22;60000;51.030;7.024;2023-05-10T10:05:28;15.16;84.86
72128;DHT22;60000;51.030;7.024;2023-05-10T10:07:53;15.10;85.04
72128;DHT22;60000;51.030;7.024;2023-05-10T10:10:18;15.07;84.59
72128;DHT22;60000;51.030;7.024;2023-05-10T10:12:44;15.13;84.88
72128;DHT22;60000;51.030;7.024;2023-05-10T10:15:10;15.20;85.18
72128;DHT22;60000;51.030;7.024;2023-05-10T10:17:36;15.33;85.35
72128;DHT22;60000;51.030;7.024;2023-05-10T10:20:05;15.44;85.50
72128;DHT22;60000;51.030;7.024;2023-05-10T10:22:30;15.41;84.13
72128;DHT22;60000;51.030;7.024;2023-05-10T10:24:56;15.36;84.00
72128;DHT22;60000;51.030;7.024;2023-05-10T10:27:35;15.36;83.59
72128;DHT22;60000;51.030;7.024;2023-05-10T10:33:01;15.31;84.04
72128;DHT22;60000;51.030;7.024;2023-05-10T10:35:29;15.40;84.20
72128;DHT22;60000;51.030;7.024;2023-05-10T10:37:55;15.43;83.91
72128;DHT22;60000;51.030;7.024;2023-05-10T10:42:51;15.60;83.10
72128;DHT22;60000;51.030;7.024;2023-05-10T10:45:16;15.67;82.72
72128;DHT22;60000;51.030;7.024;2023-05-10T10:47:41;15.68;81.95
72128;DHT22;60000;51.030;7.024;2023-05-10T10:50:08;15.62;81.92
72128;DHT22;60000;51.030;7.024;2023-05-10T10:52:38;15.55;81.87
72128;DHT22;60000;51.030;7.024;2023-05-10T10:57:45;15.43;81.93
72128;DHT22;60000;51.030;7.024;2023-05-10T11:00:24;15.44;82.26
72128;DHT22;60000;51.030;7.024;2023-05-10T11:07:59;15.80;80.85
72128;DHT22;60000;51.030;7.024;2023-05-10T11:10:26;16.11;80.39
72128;DHT22;60000;51.030;7.024;2023-05-10T11:15:40;16.70;79.35
72128;DHT22;60000;51.030;7.024;2023-05-10T11:18:29;16.98;77.11
72128;DHT22;60000;51.030;7.024;2023-05-10T11:20:59;17.11;78.09
72128;DHT22;60000;51.030;7.024;2023-05-10T11:23:33;16.92;74.86
72128;DHT22;60000;51.030;7.024;2023-05-10T11:26:12;16.64;72.76
72128;DHT22;60000;51.030;7.024;2023-05-10T11:28:48;16.49;74.58
72128;DHT22;60000;51.030;7.024;2023-05-10T11:31:17;16.39;74.99
72128;DHT22;60000;51.030;7.024;2023-05-10T11:33:43;16.29;75.50
72128;DHT22;60000;51.030;7.024;2023-05-10T11:36:50;16.26;76.55
72128;DHT22;60000;51.030;7.024;2023-05-10T11:39:16;16.29;75.83
72128;DHT22;60000;51.030;7.024;2023-05-10T11:41:41;16.21;75.65
72128;DHT22;60000;51.030;7.024;2023-05-10T11:44:08;16.21;76.22
72128;DHT22;60000;51.030;7.024;2023-05-10T11:46:34;16.25;76.98
72128;DHT22;60000;51.030;7.024;2023-05-10T11:49:00;16.30;77.15
72128;DHT22;60000;51.030;7.024;2023-05-10T11:51:26;16.46;77.26
72128;DHT22;60000;51.030;7.024;2023-05-10T11:53:56;16.61;77.10
72128;DHT22;60000;51.030;7.024;2023-05-10T11:56:22;16.79;76.94
72128;DHT22;60000;51.030;7.024;2023-05-10T11:58:56;17.10;75.75
72128;DHT22;60000;51.030;7.024;2023-05-10T12:01:22;17.40;75.25
72128;DHT22;60000;51.030;7.024;2023-05-10T12:03:49;17.68;73.04
72128;DHT22;60000;51.030;7.024;2023-05-10T12:06:15;17.82;72.30
72128;DHT22;60000;51.030;7.024;2023-05-10T12:08:45;18.04;72.55
72128;DHT22;60000;51.030;7.024;2023-05-10T12:11:11;18.16;70.62
72128;DHT22;60000;51.030;7.024;2023-05-10T12:13:41;18.28;69.49
72128;DHT22;60000;51.030;7.024;2023-05-10T12:16:23;18.86;70.68
72128;DHT22;60000;51.030;7.024;2023-05-10T12:18:55;19.12;69.55
72128;DHT22;60000;51.030;7.024;2023-05-10T12:21:20;19.19;66.90
72128;DHT22;60000;51.030;7.024;2023-05-10T12:23:48;19.51;66.98
72128;DHT22;60000;51.030;7.024;2023-05-10T12:26:14;19.73;65.16
72128;DHT22;60000;51.030;7.024;2023-05-10T12:28:40;20.19;66.21
72128;DHT22;60000;51.030;7.024;2023-05-10T12:31:06;20.67;65.14
72128;DHT22;60000;51.030;7.024;2023-05-10T12:33:39;20.67;62.13
72128;DHT22;60000;51.030;7.024;2023-05-10T12:36:08;20.64;61.97
72128;DHT22;60000;51.030;7.024;2023-05-10T12:38:35;20.54;60.59
72128;DHT22;60000;51.030;7.024;2023-05-10T12:41:04;20.14;60.08
72128;DHT22;60000;51.030;7.024;2023-05-10T12:43:30;19.74;61.41
72128;DHT22;60000;51.030;7.024;2023-05-10T12:45:56;19.77;62.76
72128;DHT22;60000;51.030;7.024;2023-05-10T12:48:21;19.82;63.10
72128;DHT22;60000;51.030;7.024;2023-05-10T12:50:47;19.85;61.64
72128;DHT22;60000;51.030;7.024;2023-05-10T12:53:14;19.79;60.78
72128;DHT22;60000;51.030;7.024;2023-05-10T12:55:41;19.95;61.57
72128;DHT22;60000;51.030;7.024;2023-05-10T12:58:06;19.88;60.39
72128;DHT22;60000;51.030;7.024;2023-05-10T13:00:32;19.73;61.03
72128;DHT22;60000;51.030;7.024;2023-05-10T13:02:57;19.63;60.99
72128;DHT22;60000;51.030;7.024;2023-05-10T13:05:22;19.53;61.22
72128;DHT22;60000;51.030;7.024;2023-05-10T13:07:47;19.43;59.86
72128;DHT22;60000;51.030;7.024;2023-05-10T13:10:13;19.22;60.51
72128;DHT22;60000;51.030;7.024;2023-05-10T13:12:39;19.23;61.45
72128;DHT22;60000;51.030;7.024;2023-05-10T13:15:04;19.31;61.83
72128;DHT22;60000;51.030;7.024;2023-05-10T13:17:30;19.31;61.30
72128;DHT22;60000;51.030;7.024;2023-05-10T13:19:55;19.37;60.85
72128;DHT22;60000;51.030;7.024;2023-05-10T13:22:20;19.36;61.02
72128;DHT22;60000;51.030;7.024;2023-05-10T13:24:46;19.36;61.13
72128;DHT22;60000;51.030;7.024;2023-05-10T13:27:11;19.57;62.06
72128;DHT22;60000;51.030;7.024;2023-05-10T13:29:37;19.79;60.92
72128;DHT22;60000;51.030;7.024;2023-05-10T13:32:02;20.02;59.58
72128;DHT22;60000;51.030;7.024;2023-05-10T13:34:27;20.21;59.07
72128;DHT22;60000;51.030;7.024;2023-05-10T13:36:53;20.23;59.42
72128;DHT22;60000;51.030;7.024;2023-05-10T13:39:20;20.60;60.27
72128;DHT22;60000;51.030;7.024;2023-05-10T13:41:45;20.63;58.57
72128;DHT22;60000;51.030;7.024;2023-05-10T13:44:12;20.46;57.65
72128;DHT22;60000;51.030;7.024;2023-05-10T13:46:38;20.59;59.90
72128;DHT22;60000;51.030;7.024;2023-05-10T13:49:04;20.69;57.09
72128;DHT22;60000;51.030;7.024;2023-05-10T13:51:29;20.42;57.10
72128;DHT22;60000;51.030;7.024;2023-05-10T13:53:56;20.32;58.12
72128;DHT22;60000;51.030;7.024;2023-05-10T13:56:22;20.22;57.59
72128;DHT22;60000;51.030;7.024;2023-05-10T13:58:47;20.04;56.45
72128;DHT22;60000;51.030;7.024;2023-05-10T14:01:12;20.01;58.58
72128;DHT22;60000;51.030;7.024;2023-05-10T14:03:38;20.33;58.37
72128;DHT22;60000;51.030;7.024;2023-05-10T14:06:03;20.73;58.21
72128;DHT22;60000;51.030;7.024;2023-05-10T14:08:29;20.84;56.64
72128;DHT22;60000;51.030;7.024;2023-05-10T14:10:54;20.84;56.78
72128;DHT22;60000;51.030;7.024;2023-05-10T14:13:21;20.73;55.32
72128;DHT22;60000;51.030;7.024;2023-05-10T14:15:46;20.46;55.74
72128;DHT22;60000;51.030;7.024;2023-05-10T14:18:12;20.32;56.98
72128;DHT22;60000;51.030;7.024;2023-05-10T14:20:37;20.26;55.92
72128;DHT22;60000;51.030;7.024;2023-05-10T14:23:02;20.29;56.83
72128;DHT22;60000;51.030;7.024;2023-05-10T14:25:28;20.26;56.94
72128;DHT22;60000;51.030;7.024;2023-05-10T14:27:53;20.35;56.46
72128;DHT22;60000;51.030;7.024;2023-05-10T14:30:20;20.70;58.68
72128;DHT22;60000;51.030;7.024;2023-05-10T14:32:45;20.85;57.72
72128;DHT22;60000;51.030;7.024;2023-05-10T14:35:11;20.81;57.62
72128;DHT22;60000;51.030;7.024;2023-05-10T14:37:37;20.47;57.48
72128;DHT22;60000;51.030;7.024;2023-05-10T14:40:03;20.12;59.75
72128;DHT22;60000;51.030;7.024;2023-05-10T14:42:29;19.89;60.04
72128;DHT22;60000;51.030;7.024;2023-05-10T14:44:56;19.68;61.16
72128;DHT22;60000;51.030;7.024;2023-05-10T14:47:21;19.65;62.47
72128;DHT22;60000;51.030;7.024;2023-05-10T14:49:46;19.60;63.19
72128;DHT22;60000;51.030;7.024;2023-05-10T14:52:12;19.67;63.49
72128;DHT22;60000;51.030;7.024;2023-05-10T14:54:37;19.58;63.20
72128;DHT22;60000;51.030;7.024;2023-05-10T14:57:03;19.49;62.46
72128;DHT22;60000;51.030;7.024;2023-05-10T14:59:28;19.31;63.43
72128;DHT22;60000;51.030;7.024;2023-05-10T15:01:54;19.00;63.09
72128;DHT22;60000;51.030;7.024;2023-05-10T15:04:19;18.71;63.02
72128;DHT22;60000;51.030;7.024;2023-05-10T15:06:44;18.52;63.98
72128;DHT22;60000;51.030;7.024;2023-05-10T15:09:10;18.44;63.44
72128;DHT22;60000;51.030;7.024;2023-05-10T15:11:35;18.30;64.15
72128;DHT22;60000;51.030;7.024;2023-05-10T15:14:01;18.11;64.19
72128;DHT22;60000;51.030;7.024;2023-05-10T15:16:26;17.99;66.12
72128;DHT22;60000;51.030;7.024;2023-05-10T15:18:52;18.07;65.98
72128;DHT22;60000;51.030;7.024;2023-05-10T15:21:17;18.17;66.20
72128;DHT22;60000;51.030;7.024;2023-05-10T15:23:42;18.31;65.62
72128;DHT22;60000;51.030;7.024;2023-05-10T15:26:08;18.34;64.68
72128;DHT22;60000;51.030;7.024;2023-05-10T15:28:33;18.34;64.74
72128;DHT22;60000;51.030;7.024;2023-05-10T15:30:58;18.38;64.87
72128;DHT22;60000;51.030;7.024;2023-05-10T15:33:24;18.40;65.85
72128;DHT22;60000;51.030;7.024;2023-05-10T15:35:51;18.37;65.22
72128;DHT22;60000;51.030;7.024;2023-05-10T15:38:16;18.27;65.22
72128;DHT22;60000;51.030;7.024;2023-05-10T15:40:41;18.17;64.62
72128;DHT22;60000;51.030;7.024;2023-05-10T15:43:07;18.01;65.83
72128;DHT22;60000;51.030;7.024;2023-05-10T15:45:32;17.85;65.93
72128;DHT22;60000;51.030;7.024;2023-05-10T15:47:58;17.68;66.23
72128;DHT22;60000;51.030;7.024;2023-05-10T15:50:24;17.66;67.16
72128;DHT22;60000;51.030;7.024;2023-05-10T15:52:50;17.69;67.63
72128;DHT22;60000;51.030;7.024;2023-05-10T15:55:16;17.73;68.26
72128;DHT22;60000;51.030;7.024;2023-05-10T15:57:42;17.79;69.28
72128;DHT22;60000;51.030;7.024;2023-05-10T16:00:08;17.73;70.28
72128;DHT22;60000;51.030;7.024;2023-05-10T16:02:34;17.58;70.79
72128;DHT22;60000;51.030;7.024;2023-05-10T16:05:00;17.49;71.93
72128;DHT22;60000;51.030;7.024;2023-05-10T16:07:25;17.40;73.14
72128;DHT22;60000;51.030;7.024;2023-05-10T16:09:51;17.35;72.71
72128;DHT22;60000;51.030;7.024;2023-05-10T16:12:16;17.19;72.64